createdAt,value
2018-11-06T00:01:13.914Z,100827.80
2018-11-06T00:03:54.434Z,100826.05
2018-11-06T00:06:31.776Z,100819.48
2018-11-06T00:09:09.245Z,100821.67
2018-11-06T00:11:47.078Z,100830.41
2018-11-06T00:14:26.214Z,100830.41
2018-11-06T00:17:01.587Z,100828.68
2018-11-06T00:19:38.860Z,100829.53
2018-11-06T00:22:16.614Z,100822.97
2018-11-06T00:24:54.173Z,100825.16
2018-11-06T00:27:31.732Z,100824.30
2018-11-06T00:30:09.407Z,100827.37
2018-11-06T00:32:46.936Z,100822.98
2018-11-06T00:35:24.654Z,100817.30
2018-11-06T00:38:01.932Z,100813.78
2018-11-06T00:40:39.117Z,100806.37
2018-11-06T00:43:16.595Z,100805.05
2018-11-06T00:45:53.423Z,100802.41
2018-11-06T00:48:31.113Z,100796.30
2018-11-06T00:51:08.431Z,100799.81
2018-11-06T00:53:50.055Z,100810.30
2018-11-06T00:56:27.950Z,100815.54
2018-11-06T00:59:04.880Z,100815.54
2018-11-06T01:01:55.461Z,100815.98
2018-11-06T01:04:38.193Z,100812.05
2018-11-06T01:07:22.533Z,100797.20
2018-11-06T01:10:00.475Z,100808.14
2018-11-06T01:12:37.705Z,100803.75
2018-11-06T01:15:16.918Z,100800.68
2018-11-06T01:17:54.249Z,100799.39
2018-11-06T01:20:31.299Z,100809.01
2018-11-06T01:23:10.370Z,100803.31
2018-11-06T01:25:47.170Z,100797.19
2018-11-06T01:28:26.359Z,100798.50
2018-11-06T01:31:04.054Z,100812.94
2018-11-06T01:33:33.501Z,100815.55
2018-11-06T01:36:03.372Z,100811.62
2018-11-06T01:38:32.967Z,100797.64
2018-11-06T01:41:02.491Z,100795.47
2018-11-06T01:43:32.135Z,100800.71
2018-11-06T01:46:01.546Z,100805.94
2018-11-06T01:48:30.969Z,100815.55
2018-11-06T01:51:01.760Z,100814.26
2018-11-06T01:53:31.199Z,100812.06
2018-11-06T01:56:00.809Z,100809.01
2018-11-06T01:58:30.286Z,100812.07
2018-11-06T02:00:59.937Z,100808.58
2018-11-06T02:03:29.576Z,100806.39
2018-11-06T02:05:59.284Z,100805.09
2018-11-06T02:08:32.759Z,100798.09
2018-11-06T02:11:02.194Z,100795.02
2018-11-06T02:13:32.146Z,100797.64
2018-11-06T02:16:01.831Z,100793.28
2018-11-06T02:18:31.579Z,100793.27
2018-11-06T02:21:01.139Z,100784.98
2018-11-06T02:23:30.558Z,100780.16
2018-11-06T02:26:00.051Z,100781.91
2018-11-06T02:28:29.472Z,100774.05
2018-11-06T02:30:58.870Z,100780.59
2018-11-06T02:33:28.868Z,100780.16
2018-11-06T02:35:58.243Z,100784.52
2018-11-06T02:38:27.650Z,100776.21
2018-11-06T02:40:57.084Z,100778.86
2018-11-06T02:43:26.518Z,100775.33
2018-11-06T02:45:56.368Z,100771.84
2018-11-06T02:48:26.663Z,100781.00
2018-11-06T02:50:56.297Z,100784.95
2018-11-06T02:53:25.758Z,100779.70
2018-11-06T02:55:55.260Z,100784.08
2018-11-06T02:58:24.639Z,100777.95
2018-11-06T03:00:54.137Z,100785.38
2018-11-06T03:03:25.388Z,100782.77
2018-11-06T03:05:54.857Z,100782.77
2018-11-06T03:08:24.716Z,100784.08
2018-11-06T03:10:54.138Z,100787.13
2018-11-06T03:13:23.707Z,100787.11
2018-11-06T03:15:53.089Z,100786.66
2018-11-06T03:18:22.901Z,100795.85
2018-11-06T03:20:52.367Z,100794.11
2018-11-06T03:23:21.758Z,100800.20
2018-11-06T03:25:51.258Z,100797.58
2018-11-06T03:28:20.654Z,100802.36
2018-11-06T03:30:50.292Z,100775.70
2018-11-06T03:33:20.582Z,100784.47
2018-11-06T03:35:50.100Z,100778.80
2018-11-06T03:38:19.521Z,100772.69
2018-11-06T03:40:49.170Z,100771.80
2018-11-06T03:43:18.612Z,100780.52
2018-11-06T03:45:48.777Z,100772.22
2018-11-06T03:48:18.146Z,100773.53
2018-11-06T03:50:47.623Z,100779.15
2018-11-06T03:53:17.037Z,100787.41
2018-11-06T03:55:46.722Z,100780.43
2018-11-06T03:58:16.404Z,100776.51
2018-11-06T04:00:46.074Z,100776.03
2018-11-06T04:03:15.576Z,100777.78
2018-11-06T04:05:45.238Z,100782.13
2018-11-06T04:08:14.636Z,100788.66
2018-11-06T04:10:43.998Z,100790.80
2018-11-06T04:13:13.388Z,100792.53
2018-11-06T04:15:46.351Z,100794.70
2018-11-06T04:18:15.795Z,100796.44
2018-11-06T04:20:45.408Z,100800.38
2018-11-06T04:23:14.999Z,100799.05
2018-11-06T04:25:44.483Z,100802.53
2018-11-06T04:28:14.134Z,100805.56
2018-11-06T04:30:43.569Z,100811.20
2018-11-06T04:33:13.017Z,100810.75
2018-11-06T04:35:42.644Z,100802.45
2018-11-06T04:38:12.041Z,100801.12
2018-11-06T04:40:41.476Z,100800.67
2018-11-06T04:43:10.917Z,100813.73
2018-11-06T04:45:40.676Z,100810.23
2018-11-06T04:48:10.302Z,100805.86
2018-11-06T04:50:39.754Z,100808.00
2018-11-06T04:53:09.203Z,100802.73
2018-11-06T04:55:38.636Z,100803.16
2018-11-06T04:58:08.053Z,100809.66
2018-11-06T05:00:37.556Z,100810.52
2018-11-06T05:03:07.090Z,100810.06
2018-11-06T05:05:36.720Z,100810.49
2018-11-06T05:08:06.367Z,100809.15
2018-11-06T05:10:35.980Z,100798.66
2018-11-06T05:13:06.540Z,100803.41
2018-11-06T05:15:36.120Z,100810.39
2018-11-06T05:18:06.615Z,100788.45
2018-11-06T05:20:36.101Z,100804.64
2018-11-06T05:23:06.502Z,100810.73
2018-11-06T05:25:35.945Z,100810.69
2018-11-06T05:28:06.227Z,100815.43
2018-11-06T05:30:35.681Z,100804.52
2018-11-06T05:33:06.641Z,100804.47
2018-11-06T05:35:36.295Z,100806.61
2018-11-06T05:38:06.508Z,100808.75
2018-11-06T05:41:02.092Z,100814.34
2018-11-06T05:43:31.511Z,100811.17
2018-11-06T05:46:01.273Z,100809.38
2018-11-06T05:48:31.057Z,100810.23
2018-11-06T05:51:00.685Z,100815.44
2018-11-06T05:53:30.814Z,100826.70
2018-11-06T05:56:00.258Z,100828.38
2018-11-06T05:58:29.777Z,100835.75
2018-11-06T06:00:59.199Z,100835.30
2018-11-06T06:03:29.056Z,100830.89
2018-11-06T06:06:00.515Z,100838.25
2018-11-06T06:08:29.929Z,100842.58
2018-11-06T06:10:59.423Z,100843.02
2018-11-06T06:13:28.824Z,100835.59
2018-11-06T06:15:58.336Z,100842.09
2018-11-06T06:18:27.835Z,100845.13
2018-11-06T06:20:57.754Z,100844.27
2018-11-06T06:23:27.207Z,100853.40
2018-11-06T06:25:56.682Z,100849.89
2018-11-06T06:28:26.400Z,100851.59
2018-11-06T06:31:04.197Z,100851.20
2018-11-06T06:33:37.716Z,100843.37
2018-11-06T06:36:11.343Z,100845.98
2018-11-06T06:38:40.922Z,100840.27
2018-11-06T06:41:10.412Z,100851.59
2018-11-06T06:43:39.858Z,100853.80
2018-11-06T06:46:09.357Z,100862.97
2018-11-06T06:48:39.070Z,100865.17
2018-11-06T06:51:08.789Z,100866.09
2018-11-06T06:53:39.690Z,100863.95
2018-11-06T06:56:09.191Z,100864.47
2018-11-06T06:58:38.676Z,100871.48
2018-11-06T07:01:08.273Z,100875.02
2018-11-06T07:03:37.794Z,100873.74
2018-11-06T07:06:07.459Z,100868.55
2018-11-06T07:08:37.211Z,100866.45
2018-11-06T07:11:06.620Z,100873.05
2018-11-06T07:13:36.572Z,100875.25
2018-11-06T07:16:07.480Z,100871.84
2018-11-06T07:18:37.259Z,100867.51
2018-11-06T07:21:09.653Z,100850.86
2018-11-06T07:23:39.222Z,100882.87
2018-11-06T07:26:08.767Z,100884.68
2018-11-06T07:28:38.395Z,100889.54
2018-11-06T07:31:08.555Z,100885.25
2018-11-06T07:33:43.581Z,100885.28
2018-11-06T07:36:12.990Z,100881.42
2018-11-06T07:38:42.420Z,100888.03
2018-11-06T07:41:11.978Z,100882.84
2018-11-06T07:43:42.385Z,100880.25
2018-11-06T07:46:12.027Z,100889.90
2018-11-06T07:48:41.415Z,100890.36
2018-11-06T07:51:12.139Z,100890.42
2018-11-06T07:53:41.615Z,100894.84
2018-11-06T07:56:11.322Z,100885.27
2018-11-06T07:58:41.690Z,100898.41
2018-11-06T08:01:11.591Z,100892.31
2018-11-06T08:03:41.240Z,100896.28
2018-11-06T08:06:11.204Z,100894.16
2018-11-06T08:08:41.463Z,100899.41
2018-11-06T08:11:11.683Z,100903.38
2018-11-06T08:13:46.659Z,100906.02
2018-11-06T08:16:16.497Z,100909.11
2018-11-06T08:18:45.968Z,100910.02
2018-11-06T08:21:19.640Z,100915.72
2018-11-06T08:23:49.320Z,100916.66
2018-11-06T08:26:18.780Z,100914.97
2018-11-06T08:28:48.344Z,100922.87
2018-11-06T08:31:18.038Z,100916.34
2018-11-06T08:33:51.656Z,100930.78
2018-11-06T08:36:21.363Z,100933.88
2018-11-06T08:38:51.002Z,100933.89
2018-11-06T08:41:20.452Z,100939.16
2018-11-06T08:43:49.900Z,100930.42
2018-11-06T08:46:19.675Z,100922.15
2018-11-06T08:48:49.160Z,100918.23
2018-11-06T08:51:18.671Z,100914.75
2018-11-06T08:53:48.507Z,100919.57
2018-11-06T08:56:18.030Z,100909.52
2018-11-06T08:58:49.197Z,100908.23
2018-11-06T09:01:21.116Z,100901.67
2018-11-06T09:03:50.854Z,100899.48
2018-11-06T09:06:20.765Z,100904.29
2018-11-06T09:08:51.092Z,100910.85
2018-11-06T09:11:20.741Z,100903.41
2018-11-06T09:13:51.355Z,100911.70
2018-11-06T09:16:21.039Z,100902.52
2018-11-06T09:18:50.501Z,100896.79
2018-11-06T09:21:19.961Z,100902.92
2018-11-06T09:23:50.432Z,100903.81
2018-11-06T09:26:23.848Z,100899.43
2018-11-06T09:28:53.556Z,100896.80
2018-11-06T09:31:23.400Z,100899.85
2018-11-06T09:33:52.811Z,100895.47
2018-11-06T09:36:22.943Z,100899.41
2018-11-06T09:38:52.487Z,100898.11
2018-11-06T09:41:21.955Z,100904.66
2018-11-06T09:43:51.347Z,100900.26
2018-11-06T09:46:20.773Z,100897.61
2018-11-06T09:48:50.234Z,100897.59
2018-11-06T09:51:19.623Z,100900.20
2018-11-06T09:53:49.158Z,100902.81
2018-11-06T09:56:18.602Z,100907.16
2018-11-06T09:58:48.258Z,100900.09
2018-11-06T10:01:17.710Z,100902.67
2018-11-06T10:03:47.068Z,100908.78
2018-11-06T10:06:16.621Z,100892.48
2018-11-06T10:08:45.969Z,100905.03
2018-11-06T10:11:15.463Z,100904.58
2018-11-06T10:13:45.141Z,100897.07
2018-11-06T10:16:15.676Z,100897.89
2018-11-06T10:18:45.164Z,100902.67
2018-11-06T10:21:14.644Z,100901.31
2018-11-06T10:23:44.277Z,100900.41
2018-11-06T10:26:13.900Z,100900.81
2018-11-06T10:28:43.263Z,100898.14
2018-11-06T10:31:12.720Z,100898.51
2018-11-06T10:33:42.164Z,100895.34
2018-11-06T10:36:11.669Z,100888.23
2018-11-06T10:38:41.124Z,100885.92
2018-11-06T10:41:10.567Z,100890.22
2018-11-06T10:43:40.062Z,100890.97
2018-11-06T10:46:10.246Z,100891.27
2018-11-06T10:48:39.683Z,100888.91
2018-11-06T10:51:09.234Z,100890.13
2018-11-06T10:53:38.622Z,100886.45
2018-11-06T10:56:08.382Z,100881.92
2018-11-06T10:58:37.797Z,100886.12
2018-11-06T11:01:12.606Z,100877.59
2018-11-06T11:03:47.312Z,100880.48
2018-11-06T11:06:16.682Z,100881.17
2018-11-06T11:08:50.674Z,100874.42
2018-11-06T11:11:20.102Z,100866.36
2018-11-06T11:13:49.766Z,100865.41
2018-11-06T11:16:19.240Z,100872.85
2018-11-06T11:18:48.634Z,100867.57
2018-11-06T11:21:18.148Z,100860.52
2018-11-06T11:23:47.562Z,100869.27
2018-11-06T11:26:17.088Z,100866.09
2018-11-06T11:28:46.514Z,100857.64
2018-11-06T11:31:16.218Z,100857.08
2018-11-06T11:33:45.807Z,100851.19
2018-11-06T11:36:15.255Z,100859.44
2018-11-06T11:38:44.853Z,100848.34
2018-11-06T11:41:14.247Z,100855.70
2018-11-06T11:43:43.656Z,100852.48
2018-11-06T11:46:13.167Z,100858.93
2018-11-06T11:48:42.695Z,100847.41
2018-11-06T11:51:12.372Z,100849.55
2018-11-06T11:53:41.780Z,100849.45
2018-11-06T11:56:11.454Z,100845.36
2018-11-06T11:58:43.249Z,100847.37
2018-11-06T12:01:14.964Z,100853.40
2018-11-06T12:03:44.410Z,100857.63
2018-11-06T12:06:13.894Z,100856.02
2018-11-06T12:08:43.292Z,100847.85
2018-11-06T12:11:12.754Z,100850.69
2018-11-06T12:13:42.250Z,100854.50
2018-11-06T12:16:11.704Z,100854.65
2018-11-06T12:18:41.663Z,100844.27
2018-11-06T12:21:11.221Z,100838.36
2018-11-06T12:23:40.609Z,100836.92
2018-11-06T12:26:10.059Z,100838.06
2018-11-06T12:28:39.720Z,100844.14
2018-11-06T12:31:09.174Z,100835.64
2018-11-06T12:33:38.690Z,100834.66
2018-11-06T12:36:08.156Z,100837.67
2018-11-06T12:38:37.702Z,100837.19
2018-11-06T12:41:07.458Z,100834.94
2018-11-06T12:43:37.077Z,100829.95
2018-11-06T12:46:06.856Z,100834.02
2018-11-06T12:48:36.397Z,100840.10
2018-11-06T12:51:06.794Z,100832.76
2018-11-06T12:53:36.858Z,100824.81
2018-11-06T12:56:06.626Z,100827.75
2018-11-06T12:58:36.066Z,100827.71
2018-11-06T13:01:06.620Z,100821.34
2018-11-06T13:03:36.149Z,100822.83
2018-11-06T13:06:06.694Z,100812.97
2018-11-06T13:08:36.200Z,100816.31
2018-11-06T13:11:06.563Z,100820.81
2018-11-06T13:13:36.121Z,100823.97
2018-11-06T13:16:06.270Z,100811.05
2018-11-06T13:18:35.681Z,100816.30
2018-11-06T13:21:06.236Z,100819.32
2018-11-06T13:23:35.652Z,100822.30
2018-11-06T13:26:06.487Z,100823.00
2018-11-06T13:28:36.024Z,100826.28
2018-11-06T13:31:06.706Z,100821.16
2018-11-06T13:33:36.099Z,100817.05
2018-11-06T13:36:07.202Z,100815.95
2018-11-06T13:38:36.744Z,100808.25
2018-11-06T13:41:06.572Z,100807.65
2018-11-06T13:43:36.149Z,100806.15
2018-11-06T13:46:06.504Z,100813.44
2018-11-06T13:48:35.938Z,100807.48
2018-11-06T13:51:06.917Z,100808.98
2018-11-06T13:53:36.425Z,100800.81
2018-11-06T13:56:06.989Z,100804.89
2018-11-06T13:58:36.622Z,100804.07
2018-11-06T14:01:07.020Z,100810.64
2018-11-06T14:03:37.435Z,100807.27
2018-11-06T14:06:07.102Z,100813.08
2018-11-06T14:08:37.266Z,100818.88
2018-11-06T14:11:07.924Z,100814.91
2018-11-06T14:13:37.305Z,100825.12
2018-11-06T14:16:08.482Z,100823.33
2018-11-06T14:18:38.023Z,100825.52
2018-11-06T14:21:07.689Z,100815.87
2018-11-06T14:23:37.321Z,100816.91
2018-11-06T14:26:07.105Z,100813.20
2018-11-06T14:28:36.686Z,100813.41
2018-11-06T14:31:06.441Z,100814.04
2018-11-06T14:33:35.883Z,100815.93
2018-11-06T14:36:07.211Z,100815.17
2018-11-06T14:38:37.372Z,100820.60
2018-11-06T14:41:06.832Z,100818.02
2018-11-06T14:43:37.023Z,100811.13
2018-11-06T14:46:06.780Z,100812.61
2018-11-06T14:48:36.278Z,100812.77
2018-11-06T14:51:06.304Z,100806.37
2018-11-06T14:53:35.828Z,100810.56
2018-11-06T14:56:06.760Z,100816.91
2018-11-06T14:58:36.464Z,100809.13
2018-11-06T15:01:07.623Z,100811.09
2018-11-06T15:03:37.177Z,100811.30
2018-11-06T15:06:06.873Z,100816.34
2018-11-06T15:08:36.314Z,100791.72
2018-11-06T15:11:06.539Z,100808.46
2018-11-06T15:13:36.284Z,100796.00
2018-11-06T15:16:06.458Z,100801.55
2018-11-06T15:18:35.988Z,100802.24
2018-11-06T15:21:07.025Z,100796.39
2018-11-06T15:23:36.390Z,100794.94
2018-11-06T15:26:07.101Z,100789.94
2018-11-06T15:28:38.636Z,100804.27
2018-11-06T15:31:09.002Z,100798.79
2018-11-06T15:33:38.761Z,100802.09
2018-11-06T15:36:08.442Z,100808.44
2018-11-06T15:38:38.172Z,100808.20
2018-11-06T15:41:08.160Z,100811.88
2018-11-06T15:43:38.355Z,100806.68
2018-11-06T15:46:08.554Z,100804.67
2018-11-06T15:48:38.181Z,100803.99
2018-11-06T15:51:07.492Z,100807.25
2018-11-06T15:53:36.911Z,100805.20
2018-11-06T15:56:07.324Z,100798.30
2018-11-06T15:58:36.853Z,100803.72
2018-11-06T16:01:06.524Z,100810.45
2018-11-06T16:03:35.920Z,100808.38
2018-11-06T16:06:06.693Z,100813.80
2018-11-06T16:08:36.262Z,100807.34
2018-11-06T16:11:06.747Z,100808.79
2018-11-06T16:13:37.464Z,100812.84
2018-11-06T16:16:07.551Z,100813.77
2018-11-06T16:18:37.286Z,100823.93
2018-11-06T16:21:06.882Z,100815.67
2018-11-06T16:23:36.179Z,100820.16
2018-11-06T16:26:07.773Z,100821.09
2018-11-06T16:28:37.663Z,100817.70
2018-11-06T16:31:07.887Z,100816.46
2018-11-06T16:33:37.325Z,100816.97
2018-11-06T16:36:06.976Z,100811.77
2018-11-06T16:38:36.447Z,100813.14
2018-11-06T16:41:07.480Z,100816.68
2018-11-06T16:43:37.102Z,100820.67
2018-11-06T16:46:07.902Z,100818.05
2018-11-06T16:48:37.435Z,100818.55
2018-11-06T16:51:07.769Z,100819.46
2018-11-06T16:53:37.264Z,100819.47
2018-11-06T16:56:07.324Z,100820.39
2018-11-06T16:58:36.833Z,100816.94
2018-11-06T17:01:06.713Z,100824.38
2018-11-06T17:03:36.010Z,100823.11
2018-11-06T17:06:10.936Z,100826.65
2018-11-06T17:08:40.482Z,100826.66
2018-11-06T17:11:09.892Z,100833.28
2018-11-06T17:13:40.016Z,100834.19
2018-11-06T17:16:09.442Z,100828.98
2018-11-06T17:18:38.943Z,100828.57
2018-11-06T17:21:08.780Z,100829.06
2018-11-06T17:23:38.374Z,100832.19
2018-11-06T17:26:07.832Z,100835.27
2018-11-06T17:28:37.495Z,100839.26
2018-11-06T17:31:07.153Z,100828.28
2018-11-06T17:33:36.836Z,100826.98
2018-11-06T17:36:07.450Z,100828.33
2018-11-06T17:41:12.410Z,100822.28
2018-11-06T17:43:41.887Z,100821.42
2018-11-06T17:46:11.343Z,100800.48
2018-11-06T17:48:40.884Z,100825.88
2018-11-06T17:51:10.363Z,100817.58
2018-11-06T17:53:40.129Z,100822.42
2018-11-06T17:56:10.366Z,100821.11
2018-11-06T17:58:39.749Z,100822.91
2018-11-06T18:01:09.216Z,100815.02
2018-11-06T18:03:38.672Z,100813.29
2018-11-06T18:06:08.466Z,100808.89
2018-11-06T18:08:38.237Z,100811.11
2018-11-06T18:11:07.785Z,100807.64
2018-11-06T18:13:37.315Z,100801.08
2018-11-06T18:16:07.131Z,100798.92
2018-11-06T18:18:36.677Z,100795.02
2018-11-06T18:21:06.552Z,100797.67
2018-11-06T18:23:36.130Z,100799.43
2018-11-06T18:26:06.228Z,100804.72
2018-11-06T18:28:35.903Z,100801.67
2018-11-06T18:31:06.221Z,100797.31
2018-11-06T18:33:35.707Z,100794.67
2018-11-06T18:36:06.402Z,100791.66
2018-11-06T18:38:36.194Z,100791.66
2018-11-06T18:41:06.618Z,100794.73
2018-11-06T18:43:36.006Z,100792.13
2018-11-06T18:46:06.651Z,100783.86
2018-11-06T18:48:36.519Z,100777.73
2018-11-06T18:51:06.337Z,100786.05
2018-11-06T18:53:36.173Z,100784.77
2018-11-06T18:56:06.527Z,100787.39
2018-11-06T18:58:36.054Z,100783.03
2018-11-06T19:01:07.048Z,100779.53
2018-11-06T19:03:36.477Z,100784.81
2018-11-06T19:06:06.430Z,100786.56
2018-11-06T19:08:35.944Z,100790.07
2018-11-06T19:11:06.654Z,100787.02
2018-11-06T19:13:36.163Z,100794.91
2018-11-06T19:16:06.347Z,100792.73
2018-11-06T19:18:35.805Z,100793.58
2018-11-06T19:21:09.712Z,100795.33
2018-11-06T19:23:39.263Z,100793.18
2018-11-06T19:26:09.130Z,100793.63
2018-11-06T19:28:38.709Z,100793.17
2018-11-06T19:31:08.164Z,100790.98
2018-11-06T19:33:37.706Z,100788.81
2018-11-06T19:36:07.201Z,100783.56
2018-11-06T19:38:36.960Z,100784.84
2018-11-06T19:41:07.123Z,100780.05
2018-11-06T19:43:36.699Z,100782.23
2018-11-06T19:46:06.666Z,100775.23
2018-11-06T19:48:36.179Z,100773.91
2018-11-06T19:51:06.502Z,100775.67
2018-11-06T19:53:37.487Z,100771.73
2018-11-06T19:56:06.959Z,100773.48
2018-11-06T19:58:36.411Z,100770.00
2018-11-06T20:01:06.367Z,100778.30
2018-11-06T20:03:36.324Z,100776.13
2018-11-06T20:06:06.761Z,100774.36
2018-11-06T20:08:36.249Z,100768.69
2018-11-06T20:11:06.806Z,100771.31
2018-11-06T20:13:36.324Z,100773.04
2018-11-06T20:16:06.326Z,100777.89
2018-11-06T20:18:35.975Z,100783.13
2018-11-06T20:21:07.018Z,100780.53
2018-11-06T20:23:36.526Z,100790.16
2018-11-06T20:26:07.935Z,100784.89
2018-11-06T20:28:37.642Z,100787.53
2018-11-06T20:31:07.279Z,100787.53
2018-11-06T20:33:36.811Z,100781.83
2018-11-06T20:36:06.636Z,100787.55
2018-11-06T20:38:36.085Z,100785.38
2018-11-06T20:41:06.242Z,100781.02
2018-11-06T20:43:35.635Z,100781.91
2018-11-06T20:46:06.693Z,100787.13
2018-11-06T20:48:36.186Z,100793.26
2018-11-06T20:51:06.623Z,100800.25
2018-11-06T20:53:36.095Z,100799.81
2018-11-06T20:56:07.276Z,100807.25
2018-11-06T20:58:37.295Z,100817.29
2018-11-06T21:01:07.703Z,100816.86
2018-11-06T21:03:37.173Z,100817.30
2018-11-06T21:06:06.917Z,100815.12
2018-11-06T21:08:36.555Z,100821.70
2018-11-06T21:11:06.607Z,100826.05
2018-11-06T21:13:36.135Z,100831.29
2018-11-06T21:16:07.168Z,100821.66
2018-11-06T21:18:36.651Z,100822.54
2018-11-06T21:21:06.573Z,100812.48
2018-11-06T21:23:35.980Z,100815.12
2018-11-06T21:26:06.672Z,100815.53
2018-11-06T21:28:36.175Z,100815.52
2018-11-06T21:31:07.858Z,100823.81
2018-11-06T21:33:37.413Z,100822.05
2018-11-06T21:36:06.832Z,100819.87
2018-11-06T21:38:36.406Z,100824.23
2018-11-06T21:41:06.463Z,100823.78
2018-11-06T21:43:35.998Z,100817.20
2018-11-06T21:46:05.555Z,100830.28
2018-11-06T21:48:35.072Z,100831.59
2018-11-06T21:51:04.514Z,100826.33
2018-11-06T21:53:33.995Z,100828.50
2018-11-06T21:56:03.863Z,100823.69
2018-11-06T21:58:35.434Z,100826.75
2018-11-06T22:01:05.395Z,100820.59
2018-11-06T22:03:35.767Z,100801.38
2018-11-06T22:06:05.311Z,100807.94
2018-11-06T22:08:34.971Z,100807.92
2018-11-06T22:11:04.940Z,100801.80
2018-11-06T22:13:35.091Z,100804.84
2018-11-06T22:16:10.448Z,100805.69
2018-11-06T22:18:41.342Z,100800.02
2018-11-06T22:21:11.715Z,100799.15
2018-11-06T22:23:42.867Z,100798.27
2018-11-06T22:26:13.180Z,100801.28
2018-11-06T22:28:42.721Z,100802.16
2018-11-06T22:31:12.400Z,100796.03
2018-11-06T22:33:43.500Z,100799.05
2018-11-06T22:36:14.072Z,100805.59
2018-11-06T22:38:43.927Z,100798.61
2018-11-06T22:41:14.394Z,100806.87
2018-11-06T22:43:43.948Z,100797.72
2018-11-06T22:46:13.514Z,100795.06
2018-11-06T22:48:42.953Z,100795.04
2018-11-06T22:51:12.496Z,100799.38
2018-11-06T22:53:42.064Z,100794.55
2018-11-06T22:56:11.688Z,100793.68
2018-11-06T22:58:41.215Z,100792.37
2018-11-06T23:01:17.748Z,100795.38
2018-11-06T23:03:47.592Z,100795.35
2018-11-06T23:06:17.392Z,100787.05
2018-11-06T23:08:46.606Z,100783.95
2018-11-06T23:11:16.088Z,100789.59
2018-11-06T23:13:45.701Z,100784.78
2018-11-06T23:16:15.486Z,100782.61
2018-11-06T23:18:45.059Z,100771.73
2018-11-06T23:21:14.970Z,100773.03
2018-11-06T23:23:44.637Z,100768.66
2018-11-06T23:26:15.367Z,100769.11
2018-11-06T23:28:45.085Z,100773.46
2018-11-06T23:31:14.540Z,100767.81
2018-11-06T23:33:44.543Z,100775.23
2018-11-06T23:36:14.112Z,100777.44
2018-11-06T23:38:43.658Z,100784.00
2018-11-06T23:41:13.113Z,100774.01
2018-11-06T23:43:42.543Z,100777.49
2018-11-06T23:46:12.133Z,100775.77
2018-11-06T23:48:41.953Z,100770.98
2018-11-06T23:51:11.427Z,100771.89
2018-11-06T23:53:41.866Z,100770.61
2018-11-06T23:56:11.321Z,100774.55
2018-11-06T23:58:40.941Z,100753.18
